sensor_id;sensor_type;location;lat;lon;timestamp;pressure;altitude;pressure_sealevel;temperature;humidity
5777;BME280;2914;42.668;23.346;2022-12-18T00:01:36;95233.44;;;7.62;100.00
5777;BME280;2914;42.668;23.346;2022-12-18T00:04:11;95228.06;;;7.45;100.00
5777;BME280;2914;42.668;23.346;2022-12-18T00:06:40;95241.14;;;7.39;100.00
5777;BME280;2914;42.668;23.346;2022-12-18T00:09:10;95244.17;;;7.33;100.00
5777;BME280;2914;42.668;23.346;2022-12-18T00:11:39;95242.70;;;7.29;100.00
5777;BME280;2914;42.668;23.346;2022-12-18T00:16:52;95248.34;;;7.17;100.00
5777;BME280;2914;42.668;23.346;2022-12-18T00:19:21;95250.98;;;6.97;100.00
5777;BME280;2914;42.668;23.346;2022-12-18T00:21:50;95238.67;;;7.05;100.00
5777;BME280;2914;42.668;23.346;2022-12-18T00:24:19;95258.51;;;7.09;100.00
5777;BME280;2914;42.668;23.346;2022-12-18T00:26:48;95254.66;;;7.07;100.00
5777;BME280;2914;42.668;23.346;2022-12-18T00:29:17;95271.89;;;7.24;100.00
5777;BME280;2914;42.668;23.346;2022-12-18T00:31:46;95266.99;;;7.12;100.00
5777;BME280;2914;42.668;23.346;2022-12-18T00:34:15;95267.31;;;7.08;100.00
5777;BME280;2914;42.668;23.346;2022-12-18T00:36:46;95275.34;;;7.12;100.00
5777;BME280;2914;42.668;23.346;2022-12-18T00:39:15;95274.36;;;7.20;100.00
5777;BME280;2914;42.668;23.346;2022-12-18T00:41:44;95270.16;;;7.05;100.00
5777;BME280;2914;42.668;23.346;2022-12-18T00:44:31;95274.74;;;6.88;100.00
5777;BME280;2914;42.668;23.346;2022-12-18T00:47:00;95278.15;;;6.96;100.00
5777;BME280;2914;42.668;23.346;2022-12-18T00:49:29;95282.78;;;6.92;100.00
5777;BME280;2914;42.668;23.346;2022-12-18T00:51:58;95277.03;;;6.80;100.00
5777;BME280;2914;42.668;23.346;2022-12-18T00:54:27;95274.42;;;6.73;100.00
5777;BME280;2914;42.668;23.346;2022-12-18T00:56:56;95284.57;;;6.65;100.00
5777;BME280;2914;42.668;23.346;2022-12-18T00:59:25;95289.09;;;6.62;100.00
5777;BME280;2914;42.668;23.346;2022-12-18T01:01:54;95291.06;;;6.59;100.00
5777;BME280;2914;42.668;23.346;2022-12-18T01:04:23;95288.67;;;6.76;100.00
5777;BME280;2914;42.668;23.346;2022-12-18T01:06:52;95292.77;;;6.80;100.00
5777;BME280;2914;42.668;23.346;2022-12-18T01:09:21;95299.39;;;6.86;100.00
5777;BME280;2914;42.668;23.346;2022-12-18T01:11:50;95296.71;;;6.73;100.00
5777;BME280;2914;42.668;23.346;2022-12-18T01:16:57;95314.36;;;6.84;100.00
5777;BME280;2914;42.668;23.346;2022-12-18T01:19:26;95312.61;;;6.77;100.00
5777;BME280;2914;42.668;23.346;2022-12-18T01:21:56;95322.03;;;6.67;100.00
5777;BME280;2914;42.668;23.346;2022-12-18T01:24:25;95314.55;;;6.60;100.00
5777;BME280;2914;42.668;23.346;2022-12-18T01:26:54;95321.99;;;6.47;100.00
5777;BME280;2914;42.668;23.346;2022-12-18T01:29:25;95311.84;;;6.27;100.00
5777;BME280;2914;42.668;23.346;2022-12-18T01:31:55;95317.00;;;6.22;100.00
5777;BME280;2914;42.668;23.346;2022-12-18T01:34:25;95320.58;;;6.14;100.00
5777;BME280;2914;42.668;23.346;2022-12-18T01:36:54;95324.48;;;6.21;100.00
5777;BME280;2914;42.668;23.346;2022-12-18T01:39:23;95324.23;;;6.04;100.00
5777;BME280;2914;42.668;23.346;2022-12-18T01:41:53;95333.11;;;5.94;100.00
5777;BME280;2914;42.668;23.346;2022-12-18T01:44:56;95325.80;;;5.92;100.00
5777;BME280;2914;42.668;23.346;2022-12-18T01:47:28;95332.27;;;5.79;100.00
5777;BME280;2914;42.668;23.346;2022-12-18T01:50:02;95329.09;;;5.88;100.00
5777;BME280;2914;42.668;23.346;2022-12-18T01:52:32;95337.23;;;5.91;100.00
5777;BME280;2914;42.668;23.346;2022-12-18T01:55:03;95325.89;;;5.90;100.00
5777;BME280;2914;42.668;23.346;2022-12-18T02:00:17;95333.58;;;5.79;100.00
5777;BME280;2914;42.668;23.346;2022-12-18T02:05:34;95326.46;;;5.95;100.00
5777;BME280;2914;42.668;23.346;2022-12-18T02:10:48;95339.20;;;5.80;100.00
5777;BME280;2914;42.668;23.346;2022-12-18T02:13:22;95342.46;;;5.69;100.00
5777;BME280;2914;42.668;23.346;2022-12-18T02:18:35;95351.16;;;5.91;100.00
5777;BME280;2914;42.668;23.346;2022-12-18T02:23:50;95367.42;;;5.82;100.00
5777;BME280;2914;42.668;23.346;2022-12-18T02:26:23;95360.98;;;5.73;100.00
5777;BME280;2914;42.668;23.346;2022-12-18T02:28:55;95362.95;;;5.84;100.00
5777;BME280;2914;42.668;23.346;2022-12-18T02:31:27;95362.76;;;5.80;100.00
5777;BME280;2914;42.668;23.346;2022-12-18T02:33:58;95365.94;;;5.92;100.00
5777;BME280;2914;42.668;23.346;2022-12-18T02:36:29;95361.44;;;5.94;100.00
5777;BME280;2914;42.668;23.346;2022-12-18T02:39:00;95363.30;;;5.78;100.00
5777;BME280;2914;42.668;23.346;2022-12-18T02:41:31;95367.26;;;5.85;100.00
5777;BME280;2914;42.668;23.346;2022-12-18T02:44:06;95373.61;;;5.88;100.00
5777;BME280;2914;42.668;23.346;2022-12-18T02:49:28;95375.02;;;5.87;100.00
5777;BME280;2914;42.668;23.346;2022-12-18T02:52:00;95378.66;;;5.84;100.00
5777;BME280;2914;42.668;23.346;2022-12-18T02:54:41;95375.56;;;5.70;100.00
5777;BME280;2914;42.668;23.346;2022-12-18T02:57:15;95359.66;;;5.81;100.00
5777;BME280;2914;42.668;23.346;2022-12-18T02:59:49;95376.77;;;5.86;100.00
5777;BME280;2914;42.668;23.346;2022-12-18T03:02:22;95380.52;;;5.75;100.00
5777;BME280;2914;42.668;23.346;2022-12-18T03:04:55;95385.75;;;5.75;100.00
5777;BME280;2914;42.668;23.346;2022-12-18T03:07:27;95383.52;;;5.76;100.00
5777;BME280;2914;42.668;23.346;2022-12-18T03:09:58;95385.47;;;5.72;100.00
5777;BME280;2914;42.668;23.346;2022-12-18T03:12:32;95390.22;;;5.58;100.00
5777;BME280;2914;42.668;23.346;2022-12-18T03:15:04;95391.91;;;5.59;100.00
5777;BME280;2914;42.668;23.346;2022-12-18T03:17:34;95384.50;;;5.59;100.00
5777;BME280;2914;42.668;23.346;2022-12-18T03:20:09;95393.61;;;5.60;100.00
5777;BME280;2914;42.668;23.346;2022-12-18T03:22:39;95398.65;;;5.71;100.00
5777;BME280;2914;42.668;23.346;2022-12-18T03:25:13;95396.09;;;5.55;100.00
5777;BME280;2914;42.668;23.346;2022-12-18T03:27:46;95406.69;;;5.60;100.00
5777;BME280;2914;42.668;23.346;2022-12-18T03:30:17;95390.85;;;5.48;100.00
5777;BME280;2914;42.668;23.346;2022-12-18T03:32:48;95400.48;;;5.47;100.00
5777;BME280;2914;42.668;23.346;2022-12-18T03:35:21;95405.63;;;5.56;100.00
5777;BME280;2914;42.668;23.346;2022-12-18T03:37:51;95405.15;;;5.49;100.00
5777;BME280;2914;42.668;23.346;2022-12-18T03:40:23;95414.88;;;5.47;100.00
5777;BME280;2914;42.668;23.346;2022-12-18T03:42:55;95418.99;;;5.44;100.00
5777;BME280;2914;42.668;23.346;2022-12-18T03:45:27;95433.00;;;5.43;100.00
5777;BME280;2914;42.668;23.346;2022-12-18T03:50:45;95420.69;;;5.52;100.00
5777;BME280;2914;42.668;23.346;2022-12-18T03:53:22;95429.61;;;5.41;100.00
5777;BME280;2914;42.668;23.346;2022-12-18T03:55:53;95450.39;;;5.44;100.00
5777;BME280;2914;42.668;23.346;2022-12-18T03:58:24;95452.01;;;5.54;100.00
5777;BME280;2914;42.668;23.346;2022-12-18T04:00:56;95452.64;;;5.50;100.00
5777;BME280;2914;42.668;23.346;2022-12-18T04:03:26;95459.96;;;5.59;100.00
5777;BME280;2914;42.668;23.346;2022-12-18T04:05:58;95440.34;;;5.67;100.00
5777;BME280;2914;42.668;23.346;2022-12-18T04:08:29;95454.52;;;5.48;100.00
5777;BME280;2914;42.668;23.346;2022-12-18T04:10:58;95454.84;;;5.35;100.00
5777;BME280;2914;42.668;23.346;2022-12-18T04:16:09;95459.55;;;5.44;100.00
5777;BME280;2914;42.668;23.346;2022-12-18T04:18:38;95471.53;;;5.48;100.00
5777;BME280;2914;42.668;23.346;2022-12-18T04:23:31;95478.08;;;5.55;100.00
5777;BME280;2914;42.668;23.346;2022-12-18T04:26:00;95471.33;;;5.44;100.00
5777;BME280;2914;42.668;23.346;2022-12-18T04:28:29;95480.28;;;5.40;100.00
5777;BME280;2914;42.668;23.346;2022-12-18T04:30:58;95486.34;;;5.40;100.00
5777;BME280;2914;42.668;23.346;2022-12-18T04:33:27;95485.52;;;5.40;100.00
5777;BME280;2914;42.668;23.346;2022-12-18T04:35:56;95488.34;;;5.44;100.00
5777;BME280;2914;42.668;23.346;2022-12-18T04:38:25;95495.84;;;5.34;100.00
5777;BME280;2914;42.668;23.346;2022-12-18T04:40:54;95494.42;;;5.29;100.00
5777;BME280;2914;42.668;23.346;2022-12-18T04:43:23;95503.27;;;5.42;100.00
5777;BME280;2914;42.668;23.346;2022-12-18T04:45:52;95500.80;;;5.32;100.00
5777;BME280;2914;42.668;23.346;2022-12-18T04:48:22;95506.76;;;5.26;100.00
5777;BME280;2914;42.668;23.346;2022-12-18T04:50:52;95508.30;;;5.22;100.00
5777;BME280;2914;42.668;23.346;2022-12-18T04:53:21;95516.12;;;5.31;100.00
5777;BME280;2914;42.668;23.346;2022-12-18T04:55:51;95514.16;;;5.34;100.00
5777;BME280;2914;42.668;23.346;2022-12-18T04:58:22;95511.53;;;5.34;100.00
5777;BME280;2914;42.668;23.346;2022-12-18T05:00:51;95525.66;;;5.16;100.00
5777;BME280;2914;42.668;23.346;2022-12-18T05:03:20;95532.70;;;5.06;100.00
5777;BME280;2914;42.668;23.346;2022-12-18T05:05:51;95531.20;;;5.18;100.00
5777;BME280;2914;42.668;23.346;2022-12-18T05:08:20;95523.73;;;5.19;100.00
5777;BME280;2914;42.668;23.346;2022-12-18T05:10:49;95526.67;;;5.29;100.00
5777;BME280;2914;42.668;23.346;2022-12-18T05:15:57;95540.56;;;5.22;100.00
5777;BME280;2914;42.668;23.346;2022-12-18T05:18:26;95546.05;;;5.02;100.00
5777;BME280;2914;42.668;23.346;2022-12-18T05:20:56;95550.59;;;4.98;100.00
5777;BME280;2914;42.668;23.346;2022-12-18T05:23:25;95556.47;;;4.95;100.00
5777;BME280;2914;42.668;23.346;2022-12-18T05:25:56;95556.54;;;5.09;100.00
5777;BME280;2914;42.668;23.346;2022-12-18T05:28:27;95553.67;;;4.98;100.00
5777;BME280;2914;42.668;23.346;2022-12-18T05:30:58;95555.86;;;4.89;100.00
5777;BME280;2914;42.668;23.346;2022-12-18T05:33:29;95551.08;;;4.73;100.00
5777;BME280;2914;42.668;23.346;2022-12-18T05:36:03;95570.30;;;4.72;100.00
5777;BME280;2914;42.668;23.346;2022-12-18T05:38:34;95579.75;;;4.74;100.00
5777;BME280;2914;42.668;23.346;2022-12-18T05:41:05;95570.98;;;4.75;100.00
5777;BME280;2914;42.668;23.346;2022-12-18T05:43:35;95589.80;;;4.82;100.00
5777;BME280;2914;42.668;23.346;2022-12-18T05:48:26;95589.02;;;5.05;100.00
5777;BME280;2914;42.668;23.346;2022-12-18T05:50:55;95580.87;;;4.86;100.00
5777;BME280;2914;42.668;23.346;2022-12-18T05:53:24;95587.77;;;4.87;100.00
5777;BME280;2914;42.668;23.346;2022-12-18T05:58:32;95600.61;;;5.08;99.83
5777;BME280;2914;42.668;23.346;2022-12-18T06:01:08;95593.99;;;4.93;99.22
5777;BME280;2914;42.668;23.346;2022-12-18T06:03:38;95590.08;;;4.85;98.96
5777;BME280;2914;42.668;23.346;2022-12-18T06:09:13;95610.52;;;4.94;98.97
5777;BME280;2914;42.668;23.346;2022-12-18T06:11:44;95608.97;;;4.74;99.18
5777;BME280;2914;42.668;23.346;2022-12-18T06:14:13;95612.98;;;4.64;99.73
5777;BME280;2914;42.668;23.346;2022-12-18T06:19:22;95607.88;;;4.78;100.00
5777;BME280;2914;42.668;23.346;2022-12-18T06:21:50;95610.59;;;4.68;100.00
5777;BME280;2914;42.668;23.346;2022-12-18T06:24:20;95610.45;;;4.62;100.00
5777;BME280;2914;42.668;23.346;2022-12-18T06:26:49;95614.56;;;4.75;100.00
5777;BME280;2914;42.668;23.346;2022-12-18T06:29:18;95620.13;;;4.69;100.00
5777;BME280;2914;42.668;23.346;2022-12-18T06:31:47;95616.30;;;4.83;100.00
5777;BME280;2914;42.668;23.346;2022-12-18T06:34:16;95617.25;;;4.82;100.00
5777;BME280;2914;42.668;23.346;2022-12-18T06:36:45;95622.01;;;4.83;100.00
5777;BME280;2914;42.668;23.346;2022-12-18T06:39:14;95629.69;;;4.86;100.00
5777;BME280;2914;42.668;23.346;2022-12-18T06:41:43;95622.42;;;5.56;100.00
5777;BME280;2914;42.668;23.346;2022-12-18T06:44:12;95632.03;;;5.24;100.00
5777;BME280;2914;42.668;23.346;2022-12-18T06:46:41;95640.23;;;5.09;100.00
5777;BME280;2914;42.668;23.346;2022-12-18T06:49:10;95645.73;;;4.96;99.47
5777;BME280;2914;42.668;23.346;2022-12-18T06:51:40;95649.51;;;4.99;98.96
5777;BME280;2914;42.668;23.346;2022-12-18T06:54:09;95654.09;;;5.02;98.38
5777;BME280;2914;42.668;23.346;2022-12-18T06:56:38;95646.23;;;4.86;98.60
5777;BME280;2914;42.668;23.346;2022-12-18T06:59:07;95649.77;;;4.76;98.77
5777;BME280;2914;42.668;23.346;2022-12-18T07:01:36;95647.51;;;4.95;97.29
5777;BME280;2914;42.668;23.346;2022-12-18T07:04:05;95650.59;;;4.86;96.74
5777;BME280;2914;42.668;23.346;2022-12-18T07:06:34;95656.25;;;4.78;97.50
5777;BME280;2914;42.668;23.346;2022-12-18T07:09:03;95667.23;;;4.76;97.42
5777;BME280;2914;42.668;23.346;2022-12-18T07:11:34;95667.23;;;4.76;96.50
5777;BME280;2914;42.668;23.346;2022-12-18T07:14:03;95671.25;;;4.66;96.38
5777;BME280;2914;42.668;23.346;2022-12-18T07:19:15;95661.77;;;5.14;100.00
5777;BME280;2914;42.668;23.346;2022-12-18T07:27:02;95668.68;;;4.90;97.46
5777;BME280;2914;42.668;23.346;2022-12-18T07:29:31;95675.77;;;4.80;96.85
5777;BME280;2914;42.668;23.346;2022-12-18T07:32:00;95675.30;;;4.80;97.00
5777;BME280;2914;42.668;23.346;2022-12-18T07:34:29;95685.30;;;4.72;97.04
5777;BME280;2914;42.668;23.346;2022-12-18T07:36:58;95683.97;;;4.81;96.77
5777;BME280;2914;42.668;23.346;2022-12-18T07:39:28;95688.52;;;4.68;96.75
5777;BME280;2914;42.668;23.346;2022-12-18T07:41:57;95685.61;;;4.74;98.16
5777;BME280;2914;42.668;23.346;2022-12-18T07:47:21;95702.67;;;4.64;98.16
5777;BME280;2914;42.668;23.346;2022-12-18T07:49:50;95701.38;;;4.55;97.70
5777;BME280;2914;42.668;23.346;2022-12-18T07:52:19;95707.52;;;4.54;97.86
5777;BME280;2914;42.668;23.346;2022-12-18T07:54:48;95705.38;;;4.54;97.83
5777;BME280;2914;42.668;23.346;2022-12-18T07:57:17;95706.53;;;4.48;98.06
5777;BME280;2914;42.668;23.346;2022-12-18T07:59:47;95692.92;;;4.50;98.17
5777;BME280;2914;42.668;23.346;2022-12-18T08:02:16;95712.98;;;4.50;100.00
5777;BME280;2914;42.668;23.346;2022-12-18T08:04:45;95723.73;;;4.44;98.86
5777;BME280;2914;42.668;23.346;2022-12-18T08:07:14;95717.44;;;4.39;99.02
5777;BME280;2914;42.668;23.346;2022-12-18T08:09:43;95722.45;;;4.52;100.00
5777;BME280;2914;42.668;23.346;2022-12-18T08:12:13;95715.20;;;4.75;100.00
5777;BME280;2914;42.668;23.346;2022-12-18T08:17:21;95735.88;;;4.88;99.16
5777;BME280;2914;42.668;23.346;2022-12-18T08:19:49;95743.81;;;4.61;98.71
5777;BME280;2914;42.668;23.346;2022-12-18T08:22:18;95743.03;;;4.58;98.27
5777;BME280;2914;42.668;23.346;2022-12-18T08:24:47;95758.16;;;4.52;98.50
5777;BME280;2914;42.668;23.346;2022-12-18T08:27:16;95761.45;;;4.38;98.33
5777;BME280;2914;42.668;23.346;2022-12-18T08:29:45;95752.78;;;4.29;98.94
5777;BME280;2914;42.668;23.346;2022-12-18T08:32:14;95761.92;;;4.29;98.44
5777;BME280;2914;42.668;23.346;2022-12-18T08:34:43;95756.16;;;4.31;98.14
5777;BME280;2914;42.668;23.346;2022-12-18T08:37:12;95768.34;;;4.21;98.85
5777;BME280;2914;42.668;23.346;2022-12-18T08:39:43;95764.66;;;4.25;98.41
5777;BME280;2914;42.668;23.346;2022-12-18T08:42:12;95768.66;;;4.24;98.38
5777;BME280;2914;42.668;23.346;2022-12-18T08:44:58;95765.30;;;4.31;98.33
5777;BME280;2914;42.668;23.346;2022-12-18T08:47:27;95769.92;;;4.34;98.05
5777;BME280;2914;42.668;23.346;2022-12-18T08:49:56;95768.77;;;4.40;97.63
5777;BME280;2914;42.668;23.346;2022-12-18T08:52:25;95770.84;;;4.33;97.49
5777;BME280;2914;42.668;23.346;2022-12-18T08:54:55;95773.69;;;4.37;97.78
5777;BME280;2914;42.668;23.346;2022-12-18T08:57:24;95781.13;;;4.36;97.35
5777;BME280;2914;42.668;23.346;2022-12-18T08:59:53;95762.68;;;4.31;97.19
5777;BME280;2914;42.668;23.346;2022-12-18T09:02:22;95775.51;;;4.27;96.10
5777;BME280;2914;42.668;23.346;2022-12-18T09:04:52;95778.75;;;4.40;95.89
5777;BME280;2914;42.668;23.346;2022-12-18T09:07:21;95771.70;;;4.43;95.08
5777;BME280;2914;42.668;23.346;2022-12-18T09:09:50;95773.05;;;4.32;94.50
5777;BME280;2914;42.668;23.346;2022-12-18T09:12:19;95770.36;;;4.34;94.14
5777;BME280;2914;42.668;23.346;2022-12-18T09:14:48;95766.83;;;4.26;93.83
5777;BME280;2914;42.668;23.346;2022-12-18T09:17:17;95764.74;;;4.24;94.46
5777;BME280;2914;42.668;23.346;2022-12-18T09:19:46;95767.91;;;4.31;94.21
5777;BME280;2914;42.668;23.346;2022-12-18T09:22:15;95757.45;;;4.31;94.30
5777;BME280;2914;42.668;23.346;2022-12-18T09:24:44;95756.75;;;4.27;94.04
5777;BME280;2914;42.668;23.346;2022-12-18T09:27:13;95773.69;;;4.37;93.37
5777;BME280;2914;42.668;23.346;2022-12-18T09:29:42;95779.06;;;4.43;92.93
5777;BME280;2914;42.668;23.346;2022-12-18T09:32:11;95767.18;;;4.55;92.43
5777;BME280;2914;42.668;23.346;2022-12-18T09:34:40;95773.00;;;4.60;92.46
5777;BME280;2914;42.668;23.346;2022-12-18T09:37:09;95773.32;;;4.54;92.09
5777;BME280;2914;42.668;23.346;2022-12-18T09:39:39;95775.62;;;4.51;91.77
5777;BME280;2914;42.668;23.346;2022-12-18T09:42:12;95770.39;;;4.43;91.28
5777;BME280;2914;42.668;23.346;2022-12-18T09:47:25;95770.27;;;4.63;90.42
5777;BME280;2914;42.668;23.346;2022-12-18T09:49:56;95773.92;;;4.50;90.50
5777;BME280;2914;42.668;23.346;2022-12-18T09:52:29;95780.09;;;4.49;90.55
5777;BME280;2914;42.668;23.346;2022-12-18T09:55:03;95776.92;;;4.51;90.26
5777;BME280;2914;42.668;23.346;2022-12-18T09:57:33;95772.45;;;4.45;89.92
5777;BME280;2914;42.668;23.346;2022-12-18T10:00:15;95762.63;;;4.58;90.44
5777;BME280;2914;42.668;23.346;2022-12-18T10:02:39;95772.95;;;4.62;89.94
5777;BME280;2914;42.668;23.346;2022-12-18T10:05:13;95771.02;;;4.65;88.74
5777;BME280;2914;42.668;23.346;2022-12-18T10:07:52;95769.55;;;4.68;88.50
5777;BME280;2914;42.668;23.346;2022-12-18T10:10:31;95766.27;;;4.65;87.72
5777;BME280;2914;42.668;23.346;2022-12-18T10:13:07;95769.03;;;4.70;87.92
5777;BME280;2914;42.668;23.346;2022-12-18T10:15:41;95771.34;;;4.85;88.09
5777;BME280;2914;42.668;23.346;2022-12-18T10:18:20;95766.62;;;4.83;87.69
5777;BME280;2914;42.668;23.346;2022-12-18T10:20:50;95774.24;;;4.79;86.91
5777;BME280;2914;42.668;23.346;2022-12-18T10:23:22;95771.56;;;4.72;86.88
5777;BME280;2914;42.668;23.346;2022-12-18T10:25:55;95776.39;;;4.71;86.70
5777;BME280;2914;42.668;23.346;2022-12-18T10:28:25;95780.69;;;4.54;86.21
5777;BME280;2914;42.668;23.346;2022-12-18T10:30:55;95781.39;;;4.49;87.26
5777;BME280;2914;42.668;23.346;2022-12-18T10:33:28;95788.16;;;4.53;87.13
5777;BME280;2914;42.668;23.346;2022-12-18T10:35:58;95778.08;;;4.54;87.65
5777;BME280;2914;42.668;23.346;2022-12-18T10:38:29;95774.41;;;4.67;87.67
5777;BME280;2914;42.668;23.346;2022-12-18T10:41:00;95773.33;;;4.80;87.97
5777;BME280;2914;42.668;23.346;2022-12-18T10:43:31;95769.25;;;4.83;87.69
5777;BME280;2914;42.668;23.346;2022-12-18T10:46:12;95776.02;;;4.87;87.71
5777;BME280;2914;42.668;23.346;2022-12-18T10:51:29;95769.41;;;4.98;88.46
5777;BME280;2914;42.668;23.346;2022-12-18T10:54:02;95763.27;;;4.99;88.62
5777;BME280;2914;42.668;23.346;2022-12-18T10:56:34;95764.09;;;4.99;88.72
5777;BME280;2914;42.668;23.346;2022-12-18T10:59:06;95767.77;;;5.04;87.15
5777;BME280;2914;42.668;23.346;2022-12-18T11:01:48;95760.63;;;5.07;87.07
5777;BME280;2914;42.668;23.346;2022-12-18T11:04:21;95769.08;;;5.04;86.54
5777;BME280;2914;42.668;23.346;2022-12-18T11:06:59;95769.23;;;5.18;86.47
5777;BME280;2914;42.668;23.346;2022-12-18T11:09:29;95769.00;;;5.14;85.59
5777;BME280;2914;42.668;23.346;2022-12-18T11:12:01;95768.53;;;5.15;85.22
5777;BME280;2914;42.668;23.346;2022-12-18T11:14:33;95769.16;;;5.02;85.00
5777;BME280;2914;42.668;23.346;2022-12-18T11:17:02;95770.94;;;5.02;83.79
5777;BME280;2914;42.668;23.346;2022-12-18T11:19:34;95774.86;;;5.02;82.60
5777;BME280;2914;42.668;23.346;2022-12-18T11:24:57;95771.31;;;5.12;81.31
5777;BME280;2914;42.668;23.346;2022-12-18T11:27:28;95774.95;;;5.00;82.05
5777;BME280;2914;42.668;23.346;2022-12-18T11:30:10;95778.49;;;4.90;82.65
5777;BME280;2914;42.668;23.346;2022-12-18T11:32:42;95772.55;;;4.96;83.27
5777;BME280;2914;42.668;23.346;2022-12-18T11:35:16;95774.08;;;5.00;83.06
5777;BME280;2914;42.668;23.346;2022-12-18T11:37:49;95772.31;;;5.09;82.88
5777;BME280;2914;42.668;23.346;2022-12-18T11:40:22;95775.21;;;5.20;82.62
5777;BME280;2914;42.668;23.346;2022-12-18T11:45:40;95772.27;;;5.35;82.45
5777;BME280;2914;42.668;23.346;2022-12-18T11:48:14;95775.80;;;5.43;82.14
5777;BME280;2914;42.668;23.346;2022-12-18T11:50:48;95780.14;;;5.26;81.98
5777;BME280;2914;42.668;23.346;2022-12-18T11:53:18;95776.22;;;5.26;82.76
5777;BME280;2914;42.668;23.346;2022-12-18T11:55:54;95785.20;;;5.30;82.20
5777;BME280;2914;42.668;23.346;2022-12-18T11:58:32;95775.80;;;5.34;81.71
5777;BME280;2914;42.668;23.346;2022-12-18T12:01:05;95769.34;;;5.33;80.57
5777;BME280;2914;42.668;23.346;2022-12-18T12:03:49;95777.36;;;5.30;80.41
5777;BME280;2914;42.668;23.346;2022-12-18T12:06:21;95765.98;;;5.31;80.57
5777;BME280;2914;42.668;23.346;2022-12-18T12:11:45;95777.53;;;5.26;81.51
5777;BME280;2914;42.668;23.346;2022-12-18T12:14:23;95774.99;;;5.25;81.77
5777;BME280;2914;42.668;23.346;2022-12-18T12:16:55;95775.09;;;5.39;81.61
5777;BME280;2914;42.668;23.346;2022-12-18T12:19:34;95774.09;;;5.42;81.58
5777;BME280;2914;42.668;23.346;2022-12-18T12:22:08;95768.48;;;5.41;81.47
5777;BME280;2914;42.668;23.346;2022-12-18T12:24:45;95773.48;;;5.46;81.28
5777;BME280;2914;42.668;23.346;2022-12-18T12:27:18;95773.18;;;5.34;81.93
5777;BME280;2914;42.668;23.346;2022-12-18T12:29:53;95772.27;;;5.44;81.50
5777;BME280;2914;42.668;23.346;2022-12-18T12:32:30;95779.25;;;5.43;81.47
5777;BME280;2914;42.668;23.346;2022-12-18T12:35:06;95782.39;;;5.50;81.21
5777;BME280;2914;42.668;23.346;2022-12-18T12:37:39;95793.34;;;5.66;81.33
5777;BME280;2914;42.668;23.346;2022-12-18T12:40:12;95789.77;;;5.59;80.74
5777;BME280;2914;42.668;23.346;2022-12-18T12:42:44;95785.41;;;5.67;81.01
5777;BME280;2914;42.668;23.346;2022-12-18T12:45:34;95788.77;;;5.78;80.68
5777;BME280;2914;42.668;23.346;2022-12-18T12:48:06;95784.83;;;5.87;80.51
5777;BME280;2914;42.668;23.346;2022-12-18T12:50:37;95782.63;;;5.95;80.17
5777;BME280;2914;42.668;23.346;2022-12-18T12:53:09;95779.23;;;5.93;79.38
5777;BME280;2914;42.668;23.346;2022-12-18T12:55:41;95789.80;;;5.91;79.12
5777;BME280;2914;42.668;23.346;2022-12-18T12:58:14;95788.67;;;5.80;80.16
5777;BME280;2914;42.668;23.346;2022-12-18T13:00:46;95791.73;;;5.72;80.90
5777;BME280;2914;42.668;23.346;2022-12-18T13:03:22;95791.77;;;5.79;80.74
5777;BME280;2914;42.668;23.346;2022-12-18T13:05:52;95796.30;;;5.84;81.09
5777;BME280;2914;42.668;23.346;2022-12-18T13:08:27;95801.77;;;5.80;81.24
5777;BME280;2914;42.668;23.346;2022-12-18T13:10:57;95802.77;;;5.86;81.02
5777;BME280;2914;42.668;23.346;2022-12-18T13:13:53;95809.27;;;5.70;81.09
5777;BME280;2914;42.668;23.346;2022-12-18T13:16:25;95809.49;;;5.74;81.04
5777;BME280;2914;42.668;23.346;2022-12-18T13:18:56;95820.44;;;5.73;81.46
5777;BME280;2914;42.668;23.346;2022-12-18T13:21:28;95823.54;;;5.64;81.83
5777;BME280;2914;42.668;23.346;2022-12-18T13:24:13;95821.62;;;5.59;80.79
5777;BME280;2914;42.668;23.346;2022-12-18T13:26:32;95819.53;;;5.66;80.58
5777;BME280;2914;42.668;23.346;2022-12-18T13:29:02;95826.24;;;5.63;80.69
5777;BME280;2914;42.668;23.346;2022-12-18T13:34:37;95832.59;;;5.50;81.24
5777;BME280;2914;42.668;23.346;2022-12-18T13:37:40;95833.17;;;5.64;81.33
5777;BME280;2914;42.668;23.346;2022-12-18T13:43:33;95832.61;;;5.66;81.29
5777;BME280;2914;42.668;23.346;2022-12-18T13:46:19;95828.86;;;5.63;81.48
5777;BME280;2914;42.668;23.346;2022-12-18T13:48:57;95826.58;;;5.56;82.11
5777;BME280;2914;42.668;23.346;2022-12-18T13:51:29;95843.64;;;5.55;82.40
5777;BME280;2914;42.668;23.346;2022-12-18T13:54:00;95846.43;;;5.60;81.87
5777;BME280;2914;42.668;23.346;2022-12-18T13:56:32;95844.51;;;5.55;82.54
5777;BME280;2914;42.668;23.346;2022-12-18T13:59:10;95845.13;;;5.60;82.43
5777;BME280;2914;42.668;23.346;2022-12-18T14:01:47;95848.82;;;5.48;82.47
5777;BME280;2914;42.668;23.346;2022-12-18T14:04:23;95851.52;;;5.46;82.81
5777;BME280;2914;42.668;23.346;2022-12-18T14:06:56;95848.38;;;5.48;82.83
5777;BME280;2914;42.668;23.346;2022-12-18T14:09:28;95862.68;;;5.41;82.68
5777;BME280;2914;42.668;23.346;2022-12-18T14:11:58;95865.61;;;5.43;82.21
5777;BME280;2914;42.668;23.346;2022-12-18T14:14:47;95865.91;;;5.46;81.64
5777;BME280;2914;42.668;23.346;2022-12-18T14:17:17;95860.66;;;5.64;80.95
5777;BME280;2914;42.668;23.346;2022-12-18T14:19:47;95858.82;;;5.57;80.19
5777;BME280;2914;42.668;23.346;2022-12-18T14:22:19;95866.88;;;5.70;80.14
5777;BME280;2914;42.668;23.346;2022-12-18T14:25:04;95877.70;;;5.80;79.61
5777;BME280;2914;42.668;23.346;2022-12-18T14:27:25;95879.96;;;5.70;78.62
5777;BME280;2914;42.668;23.346;2022-12-18T14:29:54;95874.92;;;5.58;77.83
5777;BME280;2914;42.668;23.346;2022-12-18T14:32:23;95875.17;;;5.36;78.41
5777;BME280;2914;42.668;23.346;2022-12-18T14:34:53;95872.38;;;5.48;78.55
5777;BME280;2914;42.668;23.346;2022-12-18T14:37:24;95872.52;;;5.53;78.12
5777;BME280;2914;42.668;23.346;2022-12-18T14:39:58;95877.45;;;5.59;78.71
5777;BME280;2914;42.668;23.346;2022-12-18T14:42:28;95876.22;;;5.49;77.93
5777;BME280;2914;42.668;23.346;2022-12-18T14:45:35;95875.99;;;5.45;76.92
5777;BME280;2914;42.668;23.346;2022-12-18T14:48:15;95873.24;;;5.48;76.27
5777;BME280;2914;42.668;23.346;2022-12-18T14:50:45;95874.68;;;5.45;75.48
5777;BME280;2914;42.668;23.346;2022-12-18T14:53:23;95873.62;;;5.40;75.31
5777;BME280;2914;42.668;23.346;2022-12-18T14:55:53;95870.15;;;5.49;74.73
5777;BME280;2914;42.668;23.346;2022-12-18T14:58:23;95875.91;;;5.47;74.37